createdAt,value
2024-03-09T00:00:26.346Z,72.05
2024-03-09T00:02:55.239Z,72.23
2024-03-09T00:05:25.652Z,72.18
2024-03-09T00:07:56.557Z,72.27
2024-03-09T00:10:28.096Z,72.09
2024-03-09T00:12:56.662Z,72.04
2024-03-09T00:15:27.192Z,72.15
2024-03-09T00:17:55.599Z,72.34
2024-03-09T00:20:26.368Z,72.50
2024-03-09T00:22:54.394Z,72.61
2024-03-09T00:25:24.736Z,72.26
2024-03-09T00:27:55.848Z,72.66
2024-03-09T00:30:23.566Z,72.56
2024-03-09T00:32:55.315Z,72.60
2024-03-09T00:35:23.643Z,72.30
2024-03-09T00:37:50.529Z,72.42
2024-03-09T00:40:18.660Z,72.31
2024-03-09T00:42:46.763Z,72.60
2024-03-09T00:45:18.030Z,72.52
2024-03-09T00:47:48.308Z,72.59
2024-03-09T00:50:17.127Z,72.53
2024-03-09T00:52:44.928Z,72.04
2024-03-09T00:55:11.835Z,72.28
2024-03-09T00:57:39.296Z,72.32
2024-03-09T01:00:17.101Z,72.17
2024-03-09T01:02:45.554Z,72.15
2024-03-09T01:05:13.049Z,72.37
2024-03-09T01:07:40.788Z,72.29
2024-03-09T01:10:09.090Z,72.15
2024-03-09T01:12:36.860Z,72.13
2024-03-09T01:15:04.987Z,71.92
2024-03-09T01:17:31.984Z,71.44
2024-03-09T01:19:59.133Z,71.53
2024-03-09T01:22:26.275Z,71.49
2024-03-09T01:24:56.354Z,71.36
2024-03-09T01:27:23.247Z,71.18
2024-03-09T01:29:50.091Z,71.30
2024-03-09T01:32:17.067Z,71.16
2024-03-09T01:34:44.236Z,71.28
2024-03-09T01:37:11.840Z,71.29
2024-03-09T01:39:39.716Z,71.61
2024-03-09T01:42:09.812Z,71.19
2024-03-09T01:44:37.053Z,71.36
2024-03-09T01:47:10.490Z,71.54
2024-03-09T01:49:37.897Z,71.44
2024-03-09T01:52:05.898Z,71.51
2024-03-09T01:54:35.932Z,71.40
2024-03-09T01:57:03.192Z,71.54
2024-03-09T01:59:33.372Z,71.71
2024-03-09T02:02:02.952Z,71.71
2024-03-09T02:04:32.075Z,71.69
2024-03-09T02:07:00.133Z,71.84
2024-03-09T02:09:27.136Z,72.11
2024-03-09T02:11:54.700Z,71.72
2024-03-09T02:14:23.257Z,71.88
2024-03-09T02:16:51.508Z,71.89
2024-03-09T02:19:18.519Z,71.74
2024-03-09T02:21:47.457Z,71.78
2024-03-09T02:24:19.934Z,71.39
2024-03-09T02:26:48.899Z,71.85
2024-03-09T02:29:16.243Z,71.90
2024-03-09T02:31:43.249Z,72.17
2024-03-09T02:34:10.099Z,72.16
2024-03-09T02:36:40.157Z,72.55
2024-03-09T02:39:10.978Z,72.90
2024-03-09T02:41:38.391Z,72.75
2024-03-09T02:44:05.721Z,73.33
2024-03-09T02:46:32.953Z,73.14
2024-03-09T02:48:59.794Z,73.15
2024-03-09T02:51:27.943Z,73.01
2024-03-09T02:53:54.990Z,73.65
2024-03-09T02:56:22.027Z,73.49
2024-03-09T02:58:50.006Z,73.93
2024-03-09T03:01:21.614Z,73.69
2024-03-09T03:04:06.872Z,73.85
2024-03-09T03:06:34.120Z,73.93
2024-03-09T03:09:12.577Z,74.30
2024-03-09T03:11:42.632Z,74.09
2024-03-09T03:14:11.126Z,73.71
2024-03-09T03:16:38.934Z,73.90
2024-03-09T03:19:08.183Z,73.84
2024-03-09T03:21:35.644Z,73.99
2024-03-09T03:24:03.637Z,73.39
2024-03-09T03:26:31.612Z,73.61
2024-03-09T03:28:58.898Z,73.67
2024-03-09T03:31:27.119Z,73.73
2024-03-09T03:33:53.984Z,73.82
2024-03-09T03:36:21.718Z,74.13
2024-03-09T03:38:49.331Z,73.98
2024-03-09T03:41:18.408Z,74.09
2024-03-09T03:43:45.867Z,74.13
2024-03-09T03:46:14.509Z,74.49
2024-03-09T03:48:46.527Z,74.31
2024-03-09T03:51:15.002Z,74.29
2024-03-09T03:53:43.302Z,73.75
2024-03-09T03:56:10.761Z,73.84
2024-03-09T03:58:39.039Z,73.73
2024-03-09T04:01:06.790Z,73.54
2024-03-09T04:03:34.057Z,73.85
2024-03-09T04:06:01.417Z,74.38
2024-03-09T04:08:28.753Z,74.08
2024-03-09T04:10:58.814Z,74.05
2024-03-09T04:13:26.455Z,74.13
2024-03-09T04:15:54.298Z,74.35
2024-03-09T04:18:23.345Z,74.14
2024-03-09T04:20:51.297Z,73.87
2024-03-09T04:23:18.736Z,74.27
2024-03-09T04:25:51.871Z,73.96
2024-03-09T04:28:22.784Z,73.75
2024-03-09T04:30:51.110Z,73.93
2024-03-09T04:33:20.621Z,73.65
2024-03-09T04:35:51.053Z,73.72
2024-03-09T04:38:18.359Z,73.89
2024-03-09T04:40:50.891Z,73.92
2024-03-09T04:43:19.407Z,73.73
2024-03-09T04:45:52.523Z,73.86
2024-03-09T04:48:20.337Z,73.93
2024-03-09T04:50:48.835Z,73.89
2024-03-09T04:53:17.945Z,73.97
2024-03-09T04:55:49.866Z,73.79
2024-03-09T04:58:19.226Z,73.95
2024-03-09T05:00:46.965Z,73.80
2024-03-09T05:03:14.516Z,73.25
2024-03-09T05:05:42.038Z,73.64
2024-03-09T05:08:09.853Z,73.71
2024-03-09T05:10:38.556Z,73.52
2024-03-09T05:13:08.076Z,73.49
2024-03-09T05:15:38.911Z,73.68
2024-03-09T05:18:11.265Z,73.49
2024-03-09T05:20:38.851Z,73.61
2024-03-09T05:23:13.412Z,73.51
2024-03-09T05:25:43.270Z,73.52
2024-03-09T05:28:14.874Z,72.85
2024-03-09T05:30:43.528Z,73.02
2024-03-09T05:33:11.035Z,72.81
2024-03-09T05:35:38.340Z,72.78
2024-03-09T05:38:06.599Z,72.64
2024-03-09T05:40:35.617Z,72.76
2024-03-09T05:43:08.081Z,72.91
2024-03-09T05:45:36.816Z,72.85
2024-03-09T05:48:04.144Z,72.96
2024-03-09T05:50:31.731Z,73.01
2024-03-09T05:53:02.887Z,72.83
2024-03-09T05:55:30.585Z,73.11
2024-03-09T05:57:58.574Z,73.15
2024-03-09T06:00:29.524Z,72.87
2024-03-09T06:02:58.325Z,73.01
2024-03-09T06:05:32.624Z,73.04
2024-03-09T06:08:01.043Z,72.73
2024-03-09T06:10:29.420Z,72.92
2024-03-09T06:12:56.448Z,72.78
2024-03-09T06:15:24.496Z,72.82
2024-03-09T06:17:55.770Z,72.84
2024-03-09T06:20:23.054Z,73.02
2024-03-09T06:22:50.107Z,73.05
2024-03-09T06:25:24.982Z,73.30
2024-03-09T06:27:56.768Z,73.40
2024-03-09T06:30:29.299Z,73.55
2024-03-09T06:33:00.174Z,73.51
2024-03-09T06:35:27.676Z,73.59
2024-03-09T06:38:06.720Z,73.43
2024-03-09T06:40:35.851Z,73.73
2024-03-09T06:43:07.035Z,73.61
2024-03-09T06:45:35.211Z,73.85
2024-03-09T06:48:02.355Z,73.52
2024-03-09T06:50:30.946Z,73.40
2024-03-09T06:52:57.875Z,72.94
2024-03-09T06:55:27.037Z,72.67
2024-03-09T06:57:54.923Z,72.94
2024-03-09T07:00:22.736Z,72.66
2024-03-09T07:02:51.299Z,72.27
2024-03-09T07:05:18.912Z,72.76
2024-03-09T07:07:46.202Z,72.76
2024-03-09T07:10:13.523Z,72.65
2024-03-09T07:12:42.330Z,72.80
2024-03-09T07:15:18.083Z,72.38
2024-03-09T07:17:49.967Z,71.81
2024-03-09T07:20:19.007Z,72.42
2024-03-09T07:22:49.844Z,72.18
2024-03-09T07:25:25.266Z,72.67
2024-03-09T07:27:54.107Z,72.97
2024-03-09T07:30:21.201Z,72.72
2024-03-09T07:32:50.837Z,72.87
2024-03-09T07:35:20.396Z,72.55
2024-03-09T07:37:57.004Z,72.13
2024-03-09T07:40:27.394Z,71.90
2024-03-09T07:42:55.235Z,71.95
2024-03-09T07:45:31.611Z,71.63
2024-03-09T07:48:00.909Z,71.87
2024-03-09T07:50:29.544Z,71.81
2024-03-09T07:52:57.866Z,72.03
2024-03-09T07:55:27.156Z,71.09
2024-03-09T07:58:12.882Z,71.76
2024-03-09T08:00:47.035Z,71.41
2024-03-09T08:03:14.576Z,71.82
2024-03-09T08:05:42.878Z,71.91
2024-03-09T08:08:14.274Z,71.76
2024-03-09T08:10:49.521Z,71.50
2024-03-09T08:13:18.807Z,71.48
2024-03-09T08:15:46.875Z,71.42
2024-03-09T08:18:13.833Z,71.29
2024-03-09T08:20:41.070Z,70.94
2024-03-09T08:23:08.432Z,71.04
2024-03-09T08:25:35.683Z,71.11
2024-03-09T08:28:03.083Z,71.07
2024-03-09T08:30:32.322Z,71.09
2024-03-09T08:33:01.937Z,71.30
2024-03-09T08:35:31.141Z,71.43
2024-03-09T08:37:58.236Z,71.18
2024-03-09T08:40:27.368Z,70.50
2024-03-09T08:42:54.577Z,70.86
2024-03-09T08:45:30.742Z,70.91
2024-03-09T08:47:58.385Z,71.30
2024-03-09T08:50:29.086Z,70.72
2024-03-09T08:52:57.030Z,70.52
2024-03-09T08:55:24.432Z,71.00
2024-03-09T08:57:51.497Z,70.95
2024-03-09T09:00:26.615Z,70.99
2024-03-09T09:02:58.559Z,71.28
2024-03-09T09:05:29.165Z,71.06
2024-03-09T09:07:56.989Z,70.78
2024-03-09T09:10:26.938Z,71.15
2024-03-09T09:12:55.792Z,70.14
2024-03-09T09:15:26.119Z,70.18
2024-03-09T09:17:55.040Z,70.33
2024-03-09T09:20:22.409Z,70.87
2024-03-09T09:22:49.896Z,70.59
2024-03-09T09:25:20.738Z,69.91
2024-03-09T09:27:47.550Z,69.81
2024-03-09T09:30:14.485Z,69.34
2024-03-09T09:32:43.353Z,69.09
2024-03-09T09:35:11.319Z,68.75
2024-03-09T09:37:38.400Z,68.83
2024-03-09T09:40:08.775Z,68.85
2024-03-09T09:42:37.082Z,68.50
2024-03-09T09:45:06.482Z,68.82
2024-03-09T09:47:36.633Z,69.13
2024-03-09T09:50:05.010Z,69.02
2024-03-09T09:52:35.185Z,68.16
2024-03-09T09:55:03.651Z,68.96
2024-03-09T09:57:32.740Z,70.07
2024-03-09T09:59:59.858Z,68.55
2024-03-09T10:02:26.908Z,68.05
2024-03-09T10:04:55.568Z,68.07
2024-03-09T10:07:23.208Z,68.02
2024-03-09T10:09:51.010Z,67.95
2024-03-09T10:12:22.781Z,67.73
2024-03-09T10:14:50.782Z,67.74
2024-03-09T10:17:21.038Z,67.75
2024-03-09T10:19:52.209Z,67.37
2024-03-09T10:22:19.402Z,68.37
2024-03-09T10:24:58.057Z,70.30
2024-03-09T10:27:29.123Z,67.59
2024-03-09T10:30:15.222Z,66.92
2024-03-09T10:32:45.418Z,66.46
2024-03-09T10:35:13.413Z,66.28
2024-03-09T10:37:42.221Z,65.55
2024-03-09T10:40:14.367Z,65.02
2024-03-09T10:42:47.603Z,64.75
2024-03-09T10:45:16.820Z,64.56
2024-03-09T10:47:55.750Z,64.55
2024-03-09T10:50:29.965Z,64.77
2024-03-09T10:53:09.704Z,64.85
2024-03-09T10:56:01.087Z,65.23
2024-03-09T10:58:28.836Z,64.95
2024-03-09T11:00:56.216Z,65.06
2024-03-09T11:03:25.395Z,64.41
2024-03-09T11:05:56.485Z,64.36
2024-03-09T11:08:24.844Z,63.93
2024-03-09T11:10:52.830Z,63.96
2024-03-09T11:13:20.478Z,64.20
2024-03-09T11:15:53.691Z,64.16
2024-03-09T11:18:24.093Z,64.07
2024-03-09T11:21:02.112Z,63.79
2024-03-09T11:23:34.582Z,63.56
2024-03-09T11:26:04.324Z,63.93
2024-03-09T11:28:56.958Z,63.97
2024-03-09T11:31:29.665Z,64.21
2024-03-09T11:34:17.719Z,62.78
2024-03-09T11:36:53.159Z,62.01
2024-03-09T11:39:23.513Z,62.50
2024-03-09T11:41:52.070Z,62.60
2024-03-09T11:44:23.841Z,62.80
2024-03-09T11:46:51.735Z,62.56
2024-03-09T11:49:18.613Z,62.64
2024-03-09T11:51:48.703Z,62.36
2024-03-09T11:54:20.318Z,62.35
2024-03-09T11:56:47.560Z,62.26
2024-03-09T11:59:15.653Z,62.21
2024-03-09T12:01:43.047Z,61.63
2024-03-09T12:04:11.549Z,61.92
2024-03-09T12:06:43.258Z,62.83
2024-03-09T12:09:16.661Z,63.23
2024-03-09T12:11:53.463Z,63.34
2024-03-09T12:14:21.617Z,63.29
2024-03-09T12:16:52.655Z,63.37
2024-03-09T12:19:20.289Z,63.70
2024-03-09T12:21:47.990Z,63.92
2024-03-09T12:24:15.349Z,64.42
2024-03-09T12:26:42.855Z,64.64
2024-03-09T12:29:14.169Z,65.28
2024-03-09T12:31:42.199Z,65.71
2024-03-09T12:34:11.987Z,65.93
2024-03-09T12:36:50.470Z,66.20
2024-03-09T12:39:18.068Z,66.36
2024-03-09T12:41:52.532Z,66.31
2024-03-09T12:44:19.761Z,66.49
2024-03-09T12:46:48.466Z,66.67
2024-03-09T12:49:15.458Z,66.81
2024-03-09T12:51:44.015Z,66.44
2024-03-09T12:54:11.503Z,66.62
2024-03-09T12:56:40.595Z,66.69
2024-03-09T12:59:12.359Z,66.63
2024-03-09T13:01:39.808Z,66.36
2024-03-09T13:04:10.344Z,66.41
2024-03-09T13:06:42.764Z,66.57
2024-03-09T13:09:12.219Z,66.62
2024-03-09T13:11:39.638Z,66.87
2024-03-09T13:14:07.536Z,66.79
2024-03-09T13:16:35.078Z,66.42
2024-03-09T13:19:02.312Z,65.97
2024-03-09T13:21:29.173Z,65.81
2024-03-09T13:23:57.438Z,65.68
2024-03-09T13:26:25.121Z,65.82
2024-03-09T13:29:31.396Z,65.73
2024-03-09T13:32:03.382Z,65.96
2024-03-09T13:34:32.407Z,65.80
2024-03-09T13:37:00.484Z,66.03
2024-03-09T13:39:36.579Z,65.00
2024-03-09T13:42:10.507Z,64.69
2024-03-09T13:44:38.193Z,64.92
2024-03-09T13:47:07.052Z,64.64
2024-03-09T13:49:34.572Z,64.10
2024-03-09T13:52:01.575Z,63.98
2024-03-09T13:54:30.513Z,64.31
2024-03-09T13:56:57.271Z,63.86
2024-03-09T13:59:25.248Z,63.63
2024-03-09T14:01:52.347Z,63.62
2024-03-09T14:04:25.157Z,63.61
2024-03-09T14:07:06.602Z,63.56
2024-03-09T14:09:47.193Z,63.88
2024-03-09T14:12:17.139Z,63.35
2024-03-09T14:14:44.148Z,63.52
2024-03-09T14:17:11.025Z,63.48
2024-03-09T14:19:40.296Z,63.60
2024-03-09T14:22:07.535Z,62.94
2024-03-09T14:24:34.369Z,62.92
2024-03-09T14:27:01.209Z,63.38
2024-03-09T14:29:29.507Z,62.90
2024-03-09T14:31:56.744Z,62.81
2024-03-09T14:34:23.688Z,63.00
2024-03-09T14:36:50.975Z,63.12
2024-03-09T14:39:18.779Z,63.14
2024-03-09T14:41:45.844Z,63.13
2024-03-09T14:44:14.397Z,63.25
2024-03-09T14:46:42.047Z,63.42
2024-03-09T14:49:10.923Z,63.57
2024-03-09T14:51:41.026Z,63.78
2024-03-09T14:54:07.818Z,63.86
2024-03-09T14:56:34.663Z,63.77
2024-03-09T14:59:11.945Z,63.70
2024-03-09T15:01:39.005Z,63.30
2024-03-09T15:04:09.660Z,64.82
2024-03-09T15:06:41.429Z,64.45
2024-03-09T15:09:22.366Z,63.88
2024-03-09T15:11:54.302Z,63.30
2024-03-09T15:14:24.590Z,63.63
2024-03-09T15:16:51.798Z,64.17
2024-03-09T15:19:19.836Z,63.97
2024-03-09T15:21:46.692Z,63.97
2024-03-09T15:24:13.505Z,63.55
2024-03-09T15:26:44.745Z,63.67
2024-03-09T15:29:15.720Z,63.19
2024-03-09T15:31:45.562Z,62.94
2024-03-09T15:34:12.542Z,62.99
2024-03-09T15:36:40.845Z,63.34
2024-03-09T15:39:08.898Z,63.45
2024-03-09T15:41:35.894Z,63.36
2024-03-09T15:44:03.380Z,63.20
2024-03-09T15:46:30.905Z,63.12
2024-03-09T15:48:58.500Z,63.37
2024-03-09T15:51:25.299Z,63.27
2024-03-09T15:53:52.702Z,62.56
2024-03-09T15:56:22.716Z,62.67
2024-03-09T15:58:50.209Z,62.52
2024-03-09T16:01:23.358Z,62.72
2024-03-09T16:03:51.274Z,62.98
2024-03-09T16:06:18.299Z,62.87
2024-03-09T16:08:45.188Z,62.99
2024-03-09T16:11:12.115Z,63.13
2024-03-09T16:13:39.266Z,62.71
2024-03-09T16:16:15.188Z,63.05
2024-03-09T16:18:43.072Z,63.15
2024-03-09T16:21:10.445Z,63.25
2024-03-09T16:23:40.132Z,63.03
2024-03-09T16:26:08.066Z,62.94
2024-03-09T16:28:38.041Z,63.36
2024-03-09T16:31:05.828Z,63.83
2024-03-09T16:33:34.375Z,64.01
2024-03-09T16:36:03.486Z,64.31
2024-03-09T16:38:30.869Z,64.25
2024-03-09T16:40:58.002Z,64.38
2024-03-09T16:43:32.318Z,64.42
2024-03-09T16:46:06.967Z,64.80
2024-03-09T16:48:36.624Z,65.14
2024-03-09T16:51:08.783Z,65.19
2024-03-09T16:53:40.617Z,65.13
2024-03-09T16:56:09.527Z,65.24
2024-03-09T16:58:36.598Z,65.07
2024-03-09T17:01:06.101Z,65.24
2024-03-09T17:03:34.181Z,65.41
2024-03-09T17:06:03.985Z,65.93
2024-03-09T17:08:31.361Z,66.20
2024-03-09T17:10:58.901Z,66.52
2024-03-09T17:13:26.269Z,66.61
2024-03-09T17:15:53.237Z,66.62
2024-03-09T17:18:23.224Z,66.55
2024-03-09T17:20:54.067Z,66.80
2024-03-09T17:23:22.620Z,66.80
2024-03-09T17:25:50.657Z,66.44
2024-03-09T17:28:21.786Z,66.18
2024-03-09T17:30:50.121Z,66.37
2024-03-09T17:33:18.007Z,66.82
2024-03-09T17:35:45.428Z,66.81
2024-03-09T17:38:12.497Z,66.51
2024-03-09T17:40:46.302Z,66.65
2024-03-09T17:43:13.267Z,66.82
2024-03-09T17:45:40.293Z,66.97
2024-03-09T17:48:09.330Z,67.08
2024-03-09T17:50:37.459Z,66.73
2024-03-09T17:53:06.688Z,67.07
2024-03-09T17:55:34.251Z,67.51
2024-03-09T17:58:09.838Z,67.71
2024-03-09T18:00:38.691Z,67.75
2024-03-09T18:03:07.537Z,67.63
2024-03-09T18:05:35.930Z,67.98
2024-03-09T18:08:11.795Z,68.26
2024-03-09T18:10:43.829Z,68.26
2024-03-09T18:13:13.686Z,68.31
2024-03-09T18:15:44.409Z,68.57
2024-03-09T18:18:12.540Z,68.66
2024-03-09T18:20:44.519Z,68.75
2024-03-09T18:23:12.418Z,68.67
2024-03-09T18:25:39.885Z,69.00
2024-03-09T18:28:09.868Z,68.97
2024-03-09T18:30:37.342Z,69.07
2024-03-09T18:33:10.151Z,69.07
2024-03-09T18:35:39.057Z,69.28
2024-03-09T18:38:07.500Z,69.22
2024-03-09T18:40:34.682Z,69.48
2024-03-09T18:43:03.645Z,69.47
2024-03-09T18:45:34.368Z,69.41
2024-03-09T18:48:02.488Z,69.64
2024-03-09T18:50:29.676Z,69.72
2024-03-09T18:53:01.307Z,70.05
2024-03-09T18:55:30.958Z,70.22
2024-03-09T18:57:58.778Z,70.20
2024-03-09T19:00:31.799Z,70.13
2024-03-09T19:03:00.592Z,70.22
2024-03-09T19:05:28.615Z,70.34
2024-03-09T19:07:57.276Z,70.29
2024-03-09T19:10:25.071Z,70.52
2024-03-09T19:12:53.028Z,70.57
2024-03-09T19:15:21.105Z,70.67
2024-03-09T19:17:51.163Z,70.74
2024-03-09T19:20:22.318Z,70.70
2024-03-09T19:22:49.570Z,70.98
2024-03-09T19:25:17.392Z,71.19
2024-03-09T19:27:47.710Z,71.26
2024-03-09T19:30:17.288Z,71.52
2024-03-09T19:32:51.747Z,71.80
2024-03-09T19:35:26.467Z,71.88
2024-03-09T19:37:59.142Z,71.64
2024-03-09T19:40:28.190Z,71.84
2024-03-09T19:42:56.308Z,71.91
2024-03-09T19:45:24.570Z,71.81
2024-03-09T19:47:53.035Z,71.71
2024-03-09T19:50:24.244Z,71.58
2024-03-09T19:52:52.637Z,72.23
2024-03-09T19:55:21.075Z,72.16
2024-03-09T19:57:49.328Z,72.04
2024-03-09T20:00:24.925Z,72.04
2024-03-09T20:02:53.617Z,71.94
2024-03-09T20:05:26.490Z,72.16
2024-03-09T20:07:56.816Z,72.23
2024-03-09T20:10:25.636Z,72.25
2024-03-09T20:12:56.041Z,72.21
2024-03-09T20:15:23.057Z,72.32
2024-03-09T20:17:57.430Z,72.56
2024-03-09T20:20:26.191Z,72.81
2024-03-09T20:22:55.730Z,72.92
2024-03-09T20:25:24.722Z,72.77
2024-03-09T20:27:56.487Z,72.64
2024-03-09T20:30:24.203Z,72.98
2024-03-09T20:32:52.947Z,72.92
2024-03-09T20:35:21.221Z,72.90
2024-03-09T20:37:49.480Z,72.81
2024-03-09T20:40:17.486Z,72.98
2024-03-09T20:42:50.438Z,73.07
2024-03-09T20:45:19.009Z,72.80
2024-03-09T20:47:46.895Z,72.81
2024-03-09T20:50:21.657Z,72.67
2024-03-09T20:52:54.292Z,72.51
2024-03-09T20:55:22.357Z,72.66
2024-03-09T20:57:49.286Z,72.61
2024-03-09T21:00:23.740Z,72.54
2024-03-09T21:02:52.075Z,72.61
2024-03-09T21:05:19.874Z,72.66
2024-03-09T21:07:47.387Z,72.77
2024-03-09T21:10:14.956Z,72.50
2024-03-09T21:12:42.874Z,72.81
2024-03-09T21:15:10.891Z,73.05
2024-03-09T21:17:38.637Z,73.10
2024-03-09T21:20:13.270Z,73.29
2024-03-09T21:22:40.676Z,73.25
2024-03-09T21:25:11.921Z,73.19
2024-03-09T21:27:43.672Z,73.31
2024-03-09T21:30:14.517Z,73.21
2024-03-09T21:32:44.457Z,73.38
2024-03-09T21:35:14.880Z,73.49
2024-03-09T21:37:45.153Z,73.56
2024-03-09T21:40:14.451Z,73.65
2024-03-09T21:42:48.997Z,73.64
2024-03-09T21:45:16.076Z,73.84
2024-03-09T21:47:49.916Z,74.08
2024-03-09T21:50:22.835Z,74.36
2024-03-09T21:52:52.076Z,74.43
2024-03-09T21:55:19.917Z,74.30
2024-03-09T21:57:46.787Z,74.54
2024-03-09T22:00:25.033Z,74.21
2024-03-09T22:02:57.385Z,74.17
2024-03-09T22:05:27.316Z,74.24
2024-03-09T22:07:55.230Z,74.41
2024-03-09T22:10:22.502Z,73.72
2024-03-09T22:12:51.929Z,73.91
2024-03-09T22:15:18.982Z,74.21
2024-03-09T22:17:46.988Z,74.82
2024-03-09T22:20:14.431Z,75.06
2024-03-09T22:22:47.881Z,75.42
2024-03-09T22:25:16.501Z,75.31
2024-03-09T22:27:46.846Z,75.07
2024-03-09T22:30:13.931Z,75.35
2024-03-09T22:32:42.516Z,74.95
2024-03-09T22:35:17.578Z,74.57
2024-03-09T22:37:45.575Z,74.24
2024-03-09T22:40:14.905Z,73.94
2024-03-09T22:42:42.393Z,73.68
2024-03-09T22:45:12.728Z,73.78
2024-03-09T22:47:45.373Z,74.42
2024-03-09T22:50:15.130Z,74.35
2024-03-09T22:52:42.646Z,74.13
2024-03-09T22:55:10.265Z,74.10
2024-03-09T22:57:37.159Z,74.02
2024-03-09T23:00:06.131Z,74.22
2024-03-09T23:02:34.666Z,74.09
2024-03-09T23:05:02.132Z,74.30
2024-03-09T23:07:29.681Z,74.44
2024-03-09T23:09:58.301Z,74.34
2024-03-09T23:12:25.328Z,74.19
2024-03-09T23:14:52.220Z,73.79
2024-03-09T23:17:20.680Z,73.88
2024-03-09T23:19:48.258Z,73.96
2024-03-09T23:22:15.140Z,73.86
2024-03-09T23:24:41.953Z,73.84
2024-03-09T23:27:09.523Z,73.98
2024-03-09T23:29:36.350Z,74.10
2024-03-09T23:32:05.815Z,74.21
2024-03-09T23:34:33.072Z,73.92
2024-03-09T23:36:59.880Z,73.11
2024-03-09T23:39:26.962Z,72.93
2024-03-09T23:41:53.926Z,72.35
2024-03-09T23:44:21.096Z,71.81
2024-03-09T23:46:48.147Z,71.41
2024-03-09T23:49:15.908Z,71.53
2024-03-09T23:51:46.032Z,71.75
2024-03-09T23:54:13.371Z,71.49
2024-03-09T23:56:40.990Z,71.32
2024-03-09T23:59:09.110Z,70.75
